createdAt,value
2024-03-16T00:01:45.386Z,72.90
2024-03-16T00:04:18.075Z,73.07
2024-03-16T00:06:51.672Z,73.16
2024-03-16T00:09:24.083Z,73.24
2024-03-16T00:11:57.295Z,72.48
2024-03-16T00:14:29.870Z,72.80
2024-03-16T00:17:02.590Z,73.02
2024-03-16T00:19:35.281Z,73.34
2024-03-16T00:22:08.279Z,73.39
2024-03-16T00:24:40.985Z,73.59
2024-03-16T00:27:13.389Z,73.65
2024-03-16T00:29:45.905Z,73.81
2024-03-16T00:32:18.282Z,74.11
2024-03-16T00:34:51.021Z,74.31
2024-03-16T00:37:23.132Z,74.52
2024-03-16T00:39:55.558Z,74.57
2024-03-16T00:42:28.022Z,74.69
2024-03-16T00:45:00.520Z,74.81
2024-03-16T00:47:35.133Z,74.83
2024-03-16T00:50:08.196Z,75.03
2024-03-16T00:52:40.888Z,75.03
2024-03-16T00:55:13.164Z,75.00
2024-03-16T00:57:46.008Z,75.12
2024-03-16T01:00:19.658Z,75.11
2024-03-16T01:02:52.192Z,75.32
2024-03-16T01:05:26.343Z,75.36
2024-03-16T01:07:58.881Z,75.53
2024-03-16T01:10:31.573Z,75.37
2024-03-16T01:13:04.112Z,75.49
2024-03-16T01:15:37.116Z,75.68
2024-03-16T01:18:09.719Z,75.66
2024-03-16T01:20:46.305Z,75.72
2024-03-16T01:23:21.011Z,75.66
2024-03-16T01:25:53.341Z,75.86
2024-03-16T01:28:25.605Z,75.84
2024-03-16T01:30:58.872Z,75.90
2024-03-16T01:33:32.021Z,75.96
2024-03-16T01:36:04.895Z,76.21
2024-03-16T01:38:38.020Z,76.31
2024-03-16T01:41:11.035Z,76.38
2024-03-16T01:43:46.835Z,76.45
2024-03-16T01:46:19.705Z,76.36
2024-03-16T01:48:53.493Z,76.59
2024-03-16T01:51:25.921Z,76.74
2024-03-16T01:53:58.719Z,76.68
2024-03-16T01:56:31.191Z,76.65
2024-03-16T01:59:04.089Z,76.65
2024-03-16T02:01:36.295Z,76.71
2024-03-16T02:04:09.402Z,76.55
2024-03-16T02:06:42.360Z,76.50
2024-03-16T02:09:17.067Z,76.47
2024-03-16T02:11:50.126Z,76.47
2024-03-16T02:14:21.949Z,76.07
2024-03-16T02:16:56.489Z,76.02
2024-03-16T02:19:28.166Z,76.18
2024-03-16T02:21:59.972Z,75.61
2024-03-16T02:24:32.324Z,75.69
2024-03-16T02:27:05.458Z,75.87
2024-03-16T02:29:39.326Z,75.88
2024-03-16T02:32:12.553Z,76.03
2024-03-16T02:34:45.525Z,75.96
2024-03-16T02:37:18.180Z,76.03
2024-03-16T02:39:50.563Z,76.07
2024-03-16T02:42:23.108Z,75.97
2024-03-16T02:44:55.529Z,76.11
2024-03-16T02:47:28.123Z,76.10
2024-03-16T02:50:01.120Z,76.07
2024-03-16T02:52:36.417Z,76.20
2024-03-16T02:55:10.828Z,76.21
2024-03-16T02:57:44.251Z,76.06
2024-03-16T03:00:18.388Z,76.21
2024-03-16T03:02:51.358Z,76.09
2024-03-16T03:05:25.056Z,76.31
2024-03-16T03:07:57.736Z,76.33
2024-03-16T03:10:29.887Z,76.37
2024-03-16T03:13:03.109Z,76.46
2024-03-16T03:15:36.791Z,76.55
2024-03-16T03:18:09.762Z,76.65
2024-03-16T03:20:42.210Z,76.72
2024-03-16T03:23:14.531Z,76.78
2024-03-16T03:25:47.930Z,76.93
2024-03-16T03:28:20.599Z,76.83
2024-03-16T03:30:55.025Z,76.98
2024-03-16T03:33:27.836Z,77.04
2024-03-16T03:36:05.398Z,77.10
2024-03-16T03:38:38.209Z,77.23
2024-03-16T03:41:10.408Z,77.31
2024-03-16T03:43:44.560Z,77.52
2024-03-16T03:46:19.219Z,77.46
2024-03-16T03:48:53.269Z,77.57
2024-03-16T03:51:25.378Z,77.72
2024-03-16T03:53:59.567Z,77.69
2024-03-16T03:56:33.465Z,77.84
2024-03-16T03:59:06.303Z,78.00
2024-03-16T04:01:39.017Z,78.10
2024-03-16T04:04:11.900Z,77.62
2024-03-16T04:06:46.295Z,77.76
2024-03-16T04:09:18.435Z,77.29
2024-03-16T04:11:51.285Z,77.25
2024-03-16T04:14:23.595Z,77.08
2024-03-16T04:16:56.978Z,77.09
2024-03-16T04:19:29.593Z,77.03
2024-03-16T04:22:02.177Z,77.03
2024-03-16T04:24:35.073Z,77.09
2024-03-16T04:27:08.133Z,77.18
2024-03-16T04:29:41.113Z,77.30
2024-03-16T04:32:13.626Z,77.32
2024-03-16T04:34:46.219Z,76.76
2024-03-16T04:37:19.001Z,76.72
2024-03-16T04:39:51.565Z,76.70
2024-03-16T04:42:25.194Z,76.68
2024-03-16T04:44:58.406Z,76.63
2024-03-16T04:47:31.165Z,76.46
2024-03-16T04:50:03.698Z,76.18
2024-03-16T04:52:36.994Z,76.21
2024-03-16T04:55:11.075Z,76.00
2024-03-16T04:57:43.543Z,75.94
2024-03-16T05:00:16.705Z,75.84
2024-03-16T05:02:50.226Z,75.67
2024-03-16T05:05:22.789Z,75.33
2024-03-16T05:07:55.101Z,74.47
2024-03-16T05:10:28.489Z,74.70
2024-03-16T05:13:02.509Z,74.03
2024-03-16T05:15:35.476Z,73.79
2024-03-16T05:18:08.680Z,73.26
2024-03-16T05:20:42.487Z,72.65
2024-03-16T05:23:16.787Z,72.36
2024-03-16T05:25:49.730Z,71.85
2024-03-16T05:28:27.260Z,71.47
2024-03-16T05:30:57.807Z,70.72
2024-03-16T05:33:30.969Z,70.07
2024-03-16T05:36:04.699Z,69.56
2024-03-16T05:38:41.082Z,69.13
2024-03-16T05:41:14.651Z,69.01
2024-03-16T05:43:48.384Z,68.37
2024-03-16T05:46:22.835Z,68.00
2024-03-16T05:48:55.760Z,67.65
2024-03-16T05:51:30.108Z,67.08
2024-03-16T05:54:04.230Z,66.45
2024-03-16T05:56:37.917Z,66.02
2024-03-16T05:59:13.216Z,65.54
2024-03-16T06:01:48.001Z,65.15
2024-03-16T06:04:21.293Z,64.77
2024-03-16T06:06:53.915Z,64.65
2024-03-16T06:09:26.842Z,64.04
2024-03-16T06:11:59.692Z,63.63
2024-03-16T06:14:32.078Z,63.06
2024-03-16T06:17:07.741Z,62.73
2024-03-16T06:19:40.424Z,62.39
2024-03-16T06:22:13.761Z,62.28
2024-03-16T06:24:47.596Z,62.13
2024-03-16T06:27:22.049Z,61.80
2024-03-16T06:29:57.994Z,61.77
2024-03-16T06:32:34.600Z,61.61
2024-03-16T06:35:07.504Z,61.78
2024-03-16T06:37:40.741Z,61.60
2024-03-16T06:40:16.055Z,61.46
2024-03-16T06:42:50.083Z,61.37
2024-03-16T06:45:22.526Z,61.51
2024-03-16T06:47:55.507Z,61.30
2024-03-16T06:50:28.784Z,61.18
2024-03-16T06:53:01.944Z,61.59
2024-03-16T06:55:41.005Z,61.68
2024-03-16T06:58:15.131Z,61.19
2024-03-16T07:00:47.096Z,60.86
2024-03-16T07:03:19.883Z,61.13
2024-03-16T07:05:52.935Z,60.47
2024-03-16T07:08:25.600Z,60.54
2024-03-16T07:10:59.012Z,60.14
2024-03-16T07:13:33.633Z,60.31
2024-03-16T07:16:06.855Z,60.24
2024-03-16T07:18:40.491Z,60.38
2024-03-16T07:21:13.221Z,60.47
2024-03-16T07:23:48.578Z,60.38
2024-03-16T07:26:21.597Z,59.99
2024-03-16T07:28:55.860Z,59.60
2024-03-16T07:31:28.358Z,59.60
2024-03-16T07:34:03.145Z,59.94
2024-03-16T07:36:35.966Z,59.46
2024-03-16T07:39:10.064Z,59.25
2024-03-16T07:41:42.656Z,59.20
2024-03-16T07:44:15.460Z,59.08
2024-03-16T07:46:49.754Z,58.88
2024-03-16T07:49:23.888Z,58.44
2024-03-16T07:51:57.507Z,58.66
2024-03-16T07:54:30.252Z,58.22
2024-03-16T07:57:04.541Z,57.90
2024-03-16T07:59:37.383Z,58.34
2024-03-16T08:02:09.908Z,58.10
2024-03-16T08:04:42.596Z,57.81
2024-03-16T08:07:15.178Z,58.04
2024-03-16T08:09:48.152Z,57.45
2024-03-16T08:12:20.916Z,57.54
2024-03-16T08:14:53.547Z,56.81
2024-03-16T08:17:26.793Z,56.84
2024-03-16T08:20:01.699Z,56.65
2024-03-16T08:22:34.724Z,55.90
2024-03-16T08:25:13.463Z,55.54
2024-03-16T08:27:47.178Z,54.43
2024-03-16T08:30:20.757Z,53.14
2024-03-16T08:32:57.472Z,52.53
2024-03-16T08:35:32.493Z,52.50
2024-03-16T08:38:07.759Z,52.20
2024-03-16T08:40:41.028Z,51.04
2024-03-16T08:43:13.835Z,50.79
2024-03-16T08:45:48.179Z,50.66
2024-03-16T08:48:22.526Z,50.60
2024-03-16T08:50:56.553Z,50.68
2024-03-16T08:53:30.681Z,50.42
2024-03-16T08:56:05.789Z,50.37
2024-03-16T08:58:39.078Z,50.13
2024-03-16T09:01:13.547Z,49.71
2024-03-16T09:03:47.321Z,50.07
2024-03-16T09:06:20.855Z,49.62
2024-03-16T09:08:55.770Z,49.36
2024-03-16T09:11:29.185Z,49.06
2024-03-16T09:14:02.689Z,49.81
2024-03-16T09:16:40.247Z,49.09
2024-03-16T09:19:13.225Z,48.37
2024-03-16T09:21:46.665Z,48.46
2024-03-16T09:24:19.727Z,47.71
2024-03-16T09:26:52.257Z,47.89
2024-03-16T09:29:26.713Z,47.50
2024-03-16T09:31:59.679Z,47.26
2024-03-16T09:34:32.788Z,46.87
2024-03-16T09:37:06.824Z,46.52
2024-03-16T09:39:40.130Z,46.50
2024-03-16T09:42:14.261Z,46.15
2024-03-16T09:44:48.179Z,48.08
2024-03-16T09:47:25.313Z,47.01
2024-03-16T09:49:58.704Z,46.83
2024-03-16T09:52:35.826Z,47.35
2024-03-16T09:55:13.108Z,47.53
2024-03-16T09:57:47.323Z,47.34
2024-03-16T10:00:24.631Z,48.21
2024-03-16T10:02:59.223Z,47.81
2024-03-16T10:05:32.620Z,47.35
2024-03-16T10:08:07.083Z,48.43
2024-03-16T10:10:40.033Z,47.71
2024-03-16T10:13:13.277Z,47.59
2024-03-16T10:15:49.711Z,47.35
2024-03-16T10:18:23.700Z,47.77
2024-03-16T10:20:59.704Z,47.44
2024-03-16T10:23:34.025Z,46.84
2024-03-16T10:26:08.627Z,46.33
2024-03-16T10:28:45.399Z,46.75
2024-03-16T10:31:21.179Z,46.30
2024-03-16T10:33:57.912Z,45.99
2024-03-16T10:36:30.851Z,45.07
2024-03-16T10:39:03.934Z,45.52
2024-03-16T10:41:39.078Z,45.23
2024-03-16T10:44:15.865Z,44.37
2024-03-16T10:46:48.856Z,43.50
2024-03-16T10:49:22.123Z,44.12
2024-03-16T10:51:55.396Z,43.65
2024-03-16T10:54:28.754Z,43.54
2024-03-16T10:57:02.847Z,42.79
2024-03-16T10:59:38.220Z,42.94
2024-03-16T11:02:15.578Z,42.27
2024-03-16T11:04:54.353Z,42.12
2024-03-16T11:07:28.944Z,42.19
2024-03-16T11:10:03.058Z,41.65
2024-03-16T11:12:37.225Z,41.76
2024-03-16T11:15:38.374Z,41.48
2024-03-16T11:18:26.148Z,41.99
2024-03-16T11:21:00.534Z,42.37
2024-03-16T11:23:35.353Z,43.21
2024-03-16T11:26:30.227Z,43.45
2024-03-16T11:29:15.042Z,43.36
2024-03-16T11:31:49.957Z,43.56
2024-03-16T11:34:27.531Z,41.77
2024-03-16T11:37:09.027Z,41.76
2024-03-16T11:39:47.419Z,41.29
2024-03-16T11:42:24.255Z,41.28
2024-03-16T11:44:58.594Z,41.17
2024-03-16T11:47:33.209Z,41.40
2024-03-16T11:50:09.984Z,40.65
2024-03-16T11:52:44.030Z,40.65
2024-03-16T11:55:16.112Z,39.84
2024-03-16T11:57:48.809Z,40.18
2024-03-16T12:00:21.749Z,39.20
2024-03-16T12:02:56.920Z,39.14
2024-03-16T12:05:31.389Z,39.61
2024-03-16T12:08:06.652Z,39.35
2024-03-16T12:10:40.273Z,39.44
2024-03-16T12:13:14.007Z,39.21
2024-03-16T12:15:48.276Z,38.93
2024-03-16T12:18:22.741Z,39.01
2024-03-16T12:20:57.967Z,39.05
2024-03-16T12:23:31.896Z,38.80
2024-03-16T12:26:11.351Z,38.94
2024-03-16T12:28:46.558Z,39.21
2024-03-16T12:31:23.581Z,39.54
2024-03-16T12:33:58.324Z,38.93
2024-03-16T12:36:31.418Z,38.77
2024-03-16T12:39:08.105Z,38.71
2024-03-16T12:41:47.998Z,38.59
2024-03-16T12:44:23.496Z,38.62
2024-03-16T12:46:57.426Z,38.02
2024-03-16T12:49:31.297Z,38.71
2024-03-16T12:52:04.697Z,36.90
2024-03-16T12:54:38.709Z,35.76
2024-03-16T12:57:13.593Z,33.51
2024-03-16T12:59:47.361Z,32.29
2024-03-16T13:02:20.499Z,30.62
2024-03-16T13:04:55.171Z,29.57
2024-03-16T13:07:28.889Z,28.41
2024-03-16T13:10:02.097Z,27.34
2024-03-16T13:12:35.149Z,26.22
2024-03-16T13:15:09.833Z,26.16
2024-03-16T13:17:42.500Z,26.60
2024-03-16T13:20:16.476Z,28.51
2024-03-16T13:22:58.127Z,26.52
2024-03-16T13:25:23.230Z,25.96
2024-03-16T13:27:56.385Z,25.33
2024-03-16T13:30:29.659Z,24.45
2024-03-16T13:33:02.150Z,26.35
2024-03-16T13:35:34.880Z,23.56
2024-03-16T13:38:08.522Z,23.10
2024-03-16T13:40:42.617Z,22.75
2024-03-16T13:43:15.721Z,22.56
2024-03-16T13:45:50.292Z,22.39
2024-03-16T13:48:25.962Z,22.49
2024-03-16T13:51:04.816Z,22.77
2024-03-16T13:53:35.014Z,22.57
2024-03-16T13:56:08.105Z,22.47
2024-03-16T13:58:41.620Z,22.49
2024-03-16T14:01:14.901Z,22.69
2024-03-16T14:03:50.697Z,23.04
2024-03-16T14:06:22.967Z,22.99
2024-03-16T14:08:59.737Z,23.11
2024-03-16T14:11:32.319Z,23.52
2024-03-16T14:14:05.124Z,23.90
2024-03-16T14:16:41.780Z,25.14
2024-03-16T14:19:14.335Z,26.59
2024-03-16T14:21:47.589Z,28.50
2024-03-16T14:24:21.934Z,29.93
2024-03-16T14:26:54.690Z,31.36
2024-03-16T14:29:27.572Z,32.62
2024-03-16T14:32:00.597Z,33.99
2024-03-16T14:34:33.817Z,35.36
2024-03-16T14:37:06.489Z,35.36
2024-03-16T14:39:40.076Z,36.70
2024-03-16T14:42:14.339Z,37.61
2024-03-16T14:44:48.492Z,38.04
2024-03-16T14:47:22.617Z,38.02
2024-03-16T14:49:57.250Z,38.29
2024-03-16T14:52:31.630Z,39.26
2024-03-16T14:55:06.556Z,39.94
2024-03-16T14:57:40.239Z,40.38
2024-03-16T15:00:14.981Z,40.81
2024-03-16T15:02:48.513Z,40.93
2024-03-16T15:05:22.478Z,41.19
2024-03-16T15:07:55.668Z,42.19
2024-03-16T15:10:28.976Z,42.17
2024-03-16T15:13:03.620Z,42.58
2024-03-16T15:15:38.276Z,42.84
2024-03-16T15:18:11.753Z,41.23
2024-03-16T15:20:44.718Z,43.14
2024-03-16T15:23:19.661Z,43.64
2024-03-16T15:26:06.129Z,43.84
2024-03-16T15:28:39.241Z,44.33
2024-03-16T15:31:12.283Z,44.54
2024-03-16T15:33:45.413Z,45.06
2024-03-16T15:36:18.198Z,45.14
2024-03-16T15:38:51.999Z,45.70
2024-03-16T15:41:27.033Z,45.94
2024-03-16T15:43:59.813Z,46.19
2024-03-16T15:46:32.719Z,46.14
2024-03-16T15:49:05.390Z,46.68
2024-03-16T15:51:37.746Z,46.43
2024-03-16T15:54:11.873Z,46.77
2024-03-16T15:56:45.070Z,46.54
2024-03-16T15:59:17.944Z,46.41
2024-03-16T16:01:50.830Z,46.71
2024-03-16T16:04:26.127Z,46.70
2024-03-16T16:09:33.551Z,46.70
2024-03-16T16:12:06.617Z,46.68
2024-03-16T16:14:38.884Z,46.85
2024-03-16T16:17:12.127Z,46.82
2024-03-16T16:19:45.812Z,46.98
2024-03-16T16:22:19.657Z,46.78
2024-03-16T16:24:53.497Z,46.73
2024-03-16T16:27:26.947Z,47.04
2024-03-16T16:30:01.459Z,46.96
2024-03-16T16:32:38.112Z,46.82
2024-03-16T16:35:11.621Z,46.86
2024-03-16T16:37:45.340Z,47.30
2024-03-16T16:40:18.931Z,47.01
2024-03-16T16:42:51.291Z,47.67
2024-03-16T16:45:24.812Z,47.92
2024-03-16T16:47:58.571Z,47.83
2024-03-16T16:50:32.501Z,47.79
2024-03-16T16:53:05.242Z,47.93
2024-03-16T16:55:40.011Z,48.38
2024-03-16T16:58:13.979Z,48.11
2024-03-16T17:00:46.595Z,48.28
2024-03-16T17:03:19.240Z,48.62
2024-03-16T17:05:54.102Z,48.81
2024-03-16T17:08:27.959Z,48.72
2024-03-16T17:11:01.868Z,48.92
2024-03-16T17:13:35.120Z,49.12
2024-03-16T17:16:08.227Z,49.08
2024-03-16T17:18:41.115Z,48.75
2024-03-16T17:21:14.361Z,49.17
2024-03-16T17:23:48.808Z,49.15
2024-03-16T17:26:22.634Z,49.05
2024-03-16T17:28:55.738Z,49.25
2024-03-16T17:31:28.892Z,49.04
2024-03-16T17:34:03.166Z,49.32
2024-03-16T17:36:38.886Z,49.09
2024-03-16T17:39:17.300Z,49.05
2024-03-16T17:41:48.554Z,49.66
2024-03-16T17:44:21.466Z,49.34
2024-03-16T17:46:54.913Z,49.53
2024-03-16T17:49:28.508Z,49.79
2024-03-16T17:52:01.005Z,49.60
2024-03-16T17:54:35.391Z,49.52
2024-03-16T17:57:09.843Z,49.86
2024-03-16T17:59:43.405Z,49.77
2024-03-16T18:02:17.566Z,49.93
2024-03-16T18:04:50.341Z,50.14
2024-03-16T18:07:24.062Z,50.08
2024-03-16T18:09:56.760Z,49.94
2024-03-16T18:12:29.796Z,50.00
2024-03-16T18:15:03.599Z,50.17
2024-03-16T18:17:36.590Z,50.10
2024-03-16T18:20:10.874Z,50.26
2024-03-16T18:22:43.530Z,50.42
2024-03-16T18:25:17.950Z,50.62
2024-03-16T18:27:50.883Z,50.66
2024-03-16T18:30:23.572Z,50.67
2024-03-16T18:32:56.761Z,50.91
2024-03-16T18:35:29.447Z,50.90
2024-03-16T18:38:05.517Z,50.67
2024-03-16T18:40:42.805Z,50.56
2024-03-16T18:43:17.079Z,51.05
2024-03-16T18:45:49.175Z,50.78
2024-03-16T18:48:23.094Z,49.79
2024-03-16T18:50:56.948Z,50.40
2024-03-16T18:53:29.605Z,50.58
2024-03-16T18:56:03.059Z,50.95
2024-03-16T18:58:36.809Z,51.04
2024-03-16T19:01:10.597Z,50.95
2024-03-16T19:03:43.690Z,51.00
2024-03-16T19:06:17.001Z,51.03
2024-03-16T19:08:51.137Z,51.10
2024-03-16T19:11:25.507Z,51.20
2024-03-16T19:13:58.032Z,51.39
2024-03-16T19:16:30.449Z,51.46
2024-03-16T19:19:03.379Z,51.50
2024-03-16T19:21:35.883Z,51.55
2024-03-16T19:24:08.525Z,51.41
2024-03-16T19:26:58.734Z,51.31
2024-03-16T19:29:32.665Z,51.35
2024-03-16T19:32:08.368Z,51.52
2024-03-16T19:34:42.978Z,51.52
2024-03-16T19:37:16.853Z,51.75
2024-03-16T19:39:52.689Z,51.68
2024-03-16T19:42:25.326Z,51.96
2024-03-16T19:44:57.769Z,51.90
2024-03-16T19:47:35.915Z,51.92
2024-03-16T19:50:09.181Z,51.97
2024-03-16T19:52:43.177Z,51.94
2024-03-16T19:55:15.885Z,51.90
2024-03-16T19:57:48.368Z,52.03
2024-03-16T20:00:20.883Z,52.02
2024-03-16T20:02:54.613Z,52.11
2024-03-16T20:05:28.845Z,52.17
2024-03-16T20:08:01.106Z,52.24
2024-03-16T20:10:33.884Z,52.22
2024-03-16T20:13:06.962Z,52.25
2024-03-16T20:15:39.806Z,52.37
2024-03-16T20:18:12.194Z,52.43
2024-03-16T20:20:46.562Z,52.61
2024-03-16T20:23:21.289Z,52.75
2024-03-16T20:25:53.648Z,52.95
2024-03-16T20:28:26.870Z,52.95
2024-03-16T20:30:59.648Z,52.88
2024-03-16T20:33:33.223Z,53.05
2024-03-16T20:36:06.617Z,52.90
2024-03-16T20:38:39.165Z,53.05
2024-03-16T20:41:13.259Z,52.83
2024-03-16T20:43:46.875Z,52.81
2024-03-16T20:46:19.230Z,52.71
2024-03-16T20:48:52.518Z,51.96
2024-03-16T20:51:25.121Z,52.75
2024-03-16T20:53:57.182Z,52.87
2024-03-16T20:56:31.353Z,52.90
2024-03-16T20:59:04.770Z,53.26
2024-03-16T21:01:37.824Z,53.27
2024-03-16T21:04:10.685Z,53.48
2024-03-16T21:06:45.658Z,53.55
2024-03-16T21:09:18.357Z,53.62
2024-03-16T21:11:50.999Z,53.85
2024-03-16T21:14:23.477Z,53.85
2024-03-16T21:16:56.337Z,54.21
2024-03-16T21:19:28.885Z,54.14
2024-03-16T21:22:01.602Z,54.42
2024-03-16T21:24:33.921Z,54.52
2024-03-16T21:27:07.222Z,54.64
2024-03-16T21:29:39.400Z,54.60
2024-03-16T21:32:12.708Z,54.76
2024-03-16T21:34:45.373Z,54.95
2024-03-16T21:37:19.972Z,54.90
2024-03-16T21:39:52.316Z,54.96
2024-03-16T21:42:24.871Z,54.97
2024-03-16T21:44:57.518Z,55.16
2024-03-16T21:47:30.263Z,55.40
2024-03-16T21:50:03.833Z,55.56
2024-03-16T21:52:36.229Z,55.67
2024-03-16T21:55:09.225Z,55.67
2024-03-16T21:57:42.154Z,55.84
2024-03-16T22:00:15.850Z,55.87
2024-03-16T22:02:52.381Z,55.88
2024-03-16T22:05:24.650Z,55.96
2024-03-16T22:07:58.705Z,55.99
2024-03-16T22:10:31.941Z,56.11
2024-03-16T22:13:04.652Z,56.05
2024-03-16T22:15:38.109Z,56.19
2024-03-16T22:18:10.740Z,56.25
2024-03-16T22:20:43.464Z,56.34
2024-03-16T22:23:16.632Z,56.52
2024-03-16T22:25:52.623Z,56.34
2024-03-16T22:28:25.759Z,56.42
2024-03-16T22:30:58.190Z,56.43
2024-03-16T22:33:30.387Z,56.57
2024-03-16T22:36:02.413Z,56.55
2024-03-16T22:38:35.568Z,56.67
2024-03-16T22:41:09.595Z,56.77
2024-03-16T22:43:41.747Z,56.75
2024-03-16T22:46:14.564Z,55.70
2024-03-16T22:48:47.628Z,56.52
2024-03-16T22:51:20.589Z,56.68
2024-03-16T22:53:53.239Z,56.88
2024-03-16T22:56:25.760Z,57.05
2024-03-16T22:58:59.587Z,57.16
2024-03-16T23:01:33.963Z,57.25
2024-03-16T23:04:07.707Z,57.37
2024-03-16T23:06:40.131Z,57.50
2024-03-16T23:09:14.152Z,57.56
2024-03-16T23:11:47.687Z,57.70
2024-03-16T23:14:20.573Z,57.89
2024-03-16T23:16:53.078Z,58.03
2024-03-16T23:19:26.158Z,58.27
2024-03-16T23:21:58.720Z,58.27
2024-03-16T23:24:31.778Z,58.45
2024-03-16T23:27:04.377Z,58.64
2024-03-16T23:29:37.184Z,58.70
2024-03-16T23:32:10.198Z,58.77
2024-03-16T23:34:42.733Z,58.95
2024-03-16T23:37:15.446Z,59.14
2024-03-16T23:39:48.525Z,59.16
2024-03-16T23:42:21.836Z,59.19
2024-03-16T23:44:54.134Z,59.35
2024-03-16T23:47:26.882Z,59.32
2024-03-16T23:50:00.904Z,59.37
2024-03-16T23:52:34.861Z,59.29
2024-03-16T23:55:07.709Z,59.44
2024-03-16T23:57:39.910Z,59.60
